sensor_id;sensor_type;location;lat;lon;timestamp;temperature;humidity
30234;DHT22;17046;52.074;4.748;2023-03-15T00:00:05;2.40;99.90
30234;DHT22;17046;52.074;4.748;2023-03-15T00:05:01;2.60;99.90
30234;DHT22;17046;52.074;4.748;2023-03-15T00:12:19;2.50;99.90
30234;DHT22;17046;52.074;4.748;2023-03-15T00:14:47;2.70;99.90
30234;DHT22;17046;52.074;4.748;2023-03-15T00:17:13;2.30;99.90
30234;DHT22;17046;52.074;4.748;2023-03-15T00:22:05;1.90;99.90
30234;DHT22;17046;52.074;4.748;2023-03-15T00:29:23;3.10;99.90
30234;DHT22;17046;52.074;4.748;2023-03-15T00:31:48;2.30;99.90
30234;DHT22;17046;52.074;4.748;2023-03-15T00:34:16;2.20;99.90
30234;DHT22;17046;52.074;4.748;2023-03-15T00:36:43;2.50;99.90
30234;DHT22;17046;52.074;4.748;2023-03-15T00:39:09;2.60;99.90
30234;DHT22;17046;52.074;4.748;2023-03-15T00:44:01;2.80;99.90
30234;DHT22;17046;52.074;4.748;2023-03-15T00:48:55;2.80;99.90
30234;DHT22;17046;52.074;4.748;2023-03-15T00:51:22;3.00;99.90
30234;DHT22;17046;52.074;4.748;2023-03-15T00:53:50;1.00;99.90
30234;DHT22;17046;52.074;4.748;2023-03-15T00:56:22;2.90;99.90
30234;DHT22;17046;52.074;4.748;2023-03-15T01:01:19;3.10;99.90
30234;DHT22;17046;52.074;4.748;2023-03-15T01:03:46;2.50;99.90
30234;DHT22;17046;52.074;4.748;2023-03-15T01:06:15;3.00;99.90
30234;DHT22;17046;52.074;4.748;2023-03-15T01:08:40;2.40;99.90
30234;DHT22;17046;52.074;4.748;2023-03-15T01:11:09;2.60;99.90
30234;DHT22;17046;52.074;4.748;2023-03-15T01:13:36;2.50;99.90
30234;DHT22;17046;52.074;4.748;2023-03-15T01:18:27;2.90;99.90
30234;DHT22;17046;52.074;4.748;2023-03-15T01:23:20;2.30;99.90
30234;DHT22;17046;52.074;4.748;2023-03-15T01:25:45;2.90;99.90
30234;DHT22;17046;52.074;4.748;2023-03-15T01:28:11;2.60;99.90
30234;DHT22;17046;52.074;4.748;2023-03-15T01:30:37;3.60;99.90
30234;DHT22;17046;52.074;4.748;2023-03-15T01:40:20;2.40;99.90
30234;DHT22;17046;52.074;4.748;2023-03-15T01:43:13;2.70;99.90
30234;DHT22;17046;52.074;4.748;2023-03-15T01:48:35;2.50;99.90
30234;DHT22;17046;52.074;4.748;2023-03-15T01:51:06;2.40;99.90
30234;DHT22;17046;52.074;4.748;2023-03-15T01:53:35;2.00;99.90
30234;DHT22;17046;52.074;4.748;2023-03-15T01:56:01;2.20;99.90
30234;DHT22;17046;52.074;4.748;2023-03-15T01:58:28;2.70;99.90
30234;DHT22;17046;52.074;4.748;2023-03-15T02:00:54;2.10;99.90
30234;DHT22;17046;52.074;4.748;2023-03-15T02:03:33;2.00;99.90
30234;DHT22;17046;52.074;4.748;2023-03-15T02:06:05;1.90;99.90
30234;DHT22;17046;52.074;4.748;2023-03-15T02:08:37;2.00;99.90
30234;DHT22;17046;52.074;4.748;2023-03-15T02:11:04;1.80;99.90
30234;DHT22;17046;52.074;4.748;2023-03-15T02:13:31;1.90;99.90
30234;DHT22;17046;52.074;4.748;2023-03-15T02:15:58;1.80;99.90
30234;DHT22;17046;52.074;4.748;2023-03-15T02:23:37;1.70;99.90
30234;DHT22;17046;52.074;4.748;2023-03-15T02:28:38;1.70;99.90
30234;DHT22;17046;52.074;4.748;2023-03-15T02:31:04;1.60;99.90
30234;DHT22;17046;52.074;4.748;2023-03-15T02:33:38;1.60;99.90
30234;DHT22;17046;52.074;4.748;2023-03-15T02:41:06;1.60;99.90
30234;DHT22;17046;52.074;4.748;2023-03-15T02:43:32;1.60;99.90
30234;DHT22;17046;52.074;4.748;2023-03-15T02:45:58;1.40;99.90
30234;DHT22;17046;52.074;4.748;2023-03-15T02:48:25;1.60;99.90
30234;DHT22;17046;52.074;4.748;2023-03-15T02:50:51;1.50;99.90
30234;DHT22;17046;52.074;4.748;2023-03-15T02:53:16;1.80;99.90
30234;DHT22;17046;52.074;4.748;2023-03-15T03:00:34;1.60;99.90
30234;DHT22;17046;52.074;4.748;2023-03-15T03:03:00;1.20;99.90
30234;DHT22;17046;52.074;4.748;2023-03-15T03:05:25;1.40;99.90
30234;DHT22;17046;52.074;4.748;2023-03-15T03:07:51;1.10;99.90
30234;DHT22;17046;52.074;4.748;2023-03-15T03:10:18;2.10;99.90
30234;DHT22;17046;52.074;4.748;2023-03-15T03:12:44;1.60;99.90
30234;DHT22;17046;52.074;4.748;2023-03-15T03:15:10;1.70;99.90
30234;DHT22;17046;52.074;4.748;2023-03-15T03:17:36;1.30;99.90
30234;DHT22;17046;52.074;4.748;2023-03-15T03:20:06;1.50;99.90
30234;DHT22;17046;52.074;4.748;2023-03-15T03:22:33;1.80;99.90
30234;DHT22;17046;52.074;4.748;2023-03-15T03:24:59;1.50;99.90
30234;DHT22;17046;52.074;4.748;2023-03-15T03:32:16;2.00;99.90
30234;DHT22;17046;52.074;4.748;2023-03-15T03:34:42;1.90;99.90
30234;DHT22;17046;52.074;4.748;2023-03-15T03:37:19;2.00;99.90
30234;DHT22;17046;52.074;4.748;2023-03-15T03:39:46;1.80;99.90
30234;DHT22;17046;52.074;4.748;2023-03-15T03:42:12;2.00;99.90
30234;DHT22;17046;52.074;4.748;2023-03-15T03:44:39;2.50;99.90
30234;DHT22;17046;52.074;4.748;2023-03-15T03:49:30;2.00;99.90
30234;DHT22;17046;52.074;4.748;2023-03-15T03:56:49;2.10;99.90
30234;DHT22;17046;52.074;4.748;2023-03-15T04:01:40;1.10;99.90
30234;DHT22;17046;52.074;4.748;2023-03-15T04:04:07;1.20;99.90
30234;DHT22;17046;52.074;4.748;2023-03-15T04:11:27;1.00;99.90
30234;DHT22;17046;52.074;4.748;2023-03-15T04:16:19;1.80;99.90
30234;DHT22;17046;52.074;4.748;2023-03-15T04:18:45;0.20;99.90
30234;DHT22;17046;52.074;4.748;2023-03-15T04:21:11;1.80;99.90
30234;DHT22;17046;52.074;4.748;2023-03-15T04:23:37;1.60;99.90
30234;DHT22;17046;52.074;4.748;2023-03-15T04:26:04;1.80;99.90
30234;DHT22;17046;52.074;4.748;2023-03-15T04:33:28;1.60;99.90
30234;DHT22;17046;52.074;4.748;2023-03-15T04:35:56;1.60;99.90
30234;DHT22;17046;52.074;4.748;2023-03-15T04:40:52;1.70;99.90
30234;DHT22;17046;52.074;4.748;2023-03-15T04:50:37;1.30;99.90
30234;DHT22;17046;52.074;4.748;2023-03-15T05:02:47;1.90;99.90
30234;DHT22;17046;52.074;4.748;2023-03-15T05:05:19;1.80;99.90
30234;DHT22;17046;52.074;4.748;2023-03-15T05:07:45;2.00;99.90
30234;DHT22;17046;52.074;4.748;2023-03-15T05:10:12;1.90;99.90
30234;DHT22;17046;52.074;4.748;2023-03-15T05:12:37;2.10;99.90
30234;DHT22;17046;52.074;4.748;2023-03-15T05:15:03;2.20;99.90
30234;DHT22;17046;52.074;4.748;2023-03-15T05:22:21;2.30;99.90
30234;DHT22;17046;52.074;4.748;2023-03-15T05:24:50;1.50;99.90
30234;DHT22;17046;52.074;4.748;2023-03-15T05:27:18;2.20;99.90
30234;DHT22;17046;52.074;4.748;2023-03-15T05:34:36;2.30;99.90
30234;DHT22;17046;52.074;4.748;2023-03-15T05:41:54;2.60;99.90
30234;DHT22;17046;52.074;4.748;2023-03-15T05:56:32;1.40;99.90
30234;DHT22;17046;52.074;4.748;2023-03-15T05:58:57;1.30;99.90
30234;DHT22;17046;52.074;4.748;2023-03-15T06:03:49;1.40;99.90
30234;DHT22;17046;52.074;4.748;2023-03-15T06:08:40;1.40;99.90
30234;DHT22;17046;52.074;4.748;2023-03-15T06:11:06;1.50;99.90
30234;DHT22;17046;52.074;4.748;2023-03-15T06:13:32;1.60;99.90
30234;DHT22;17046;52.074;4.748;2023-03-15T06:15:57;1.40;99.90
30234;DHT22;17046;52.074;4.748;2023-03-15T06:20:49;1.40;99.90
30234;DHT22;17046;52.074;4.748;2023-03-15T06:25:41;1.20;99.90
30234;DHT22;17046;52.074;4.748;2023-03-15T06:32:59;1.50;99.90
30234;DHT22;17046;52.074;4.748;2023-03-15T06:35:25;0.90;99.90
30234;DHT22;17046;52.074;4.748;2023-03-15T06:40:17;1.40;99.90
30234;DHT22;17046;52.074;4.748;2023-03-15T06:42:43;1.40;99.90
30234;DHT22;17046;52.074;4.748;2023-03-15T06:45:09;1.30;99.90
30234;DHT22;17046;52.074;4.748;2023-03-15T06:52:27;1.40;99.90
30234;DHT22;17046;52.074;4.748;2023-03-15T06:54:52;0.70;99.90
30234;DHT22;17046;52.074;4.748;2023-03-15T06:57:18;1.90;99.90
30234;DHT22;17046;52.074;4.748;2023-03-15T07:02:15;1.70;99.90
30234;DHT22;17046;52.074;4.748;2023-03-15T07:07:09;2.40;99.90
30234;DHT22;17046;52.074;4.748;2023-03-15T07:09:35;1.80;99.90
30234;DHT22;17046;52.074;4.748;2023-03-15T07:12:00;1.90;99.90
30234;DHT22;17046;52.074;4.748;2023-03-15T07:14:26;1.90;99.90
30234;DHT22;17046;52.074;4.748;2023-03-15T07:16:52;1.80;99.90
30234;DHT22;17046;52.074;4.748;2023-03-15T07:19:17;2.40;99.90
30234;DHT22;17046;52.074;4.748;2023-03-15T07:21:43;2.40;99.90
30234;DHT22;17046;52.074;4.748;2023-03-15T07:29:01;2.30;99.90
30234;DHT22;17046;52.074;4.748;2023-03-15T07:31:26;2.30;99.90
30234;DHT22;17046;52.074;4.748;2023-03-15T07:33:52;2.60;99.90
30234;DHT22;17046;52.074;4.748;2023-03-15T07:36:18;2.40;99.90
30234;DHT22;17046;52.074;4.748;2023-03-15T07:38:44;3.00;99.90
30234;DHT22;17046;52.074;4.748;2023-03-15T07:41:10;2.80;99.90
30234;DHT22;17046;52.074;4.748;2023-03-15T07:46:01;3.20;99.90
30234;DHT22;17046;52.074;4.748;2023-03-15T07:50:54;3.10;99.90
30234;DHT22;17046;52.074;4.748;2023-03-15T07:53:20;3.10;99.90
30234;DHT22;17046;52.074;4.748;2023-03-15T07:55:47;3.30;99.90
30234;DHT22;17046;52.074;4.748;2023-03-15T07:58:13;3.20;99.90
30234;DHT22;17046;52.074;4.748;2023-03-15T08:00:39;3.10;99.90
30234;DHT22;17046;52.074;4.748;2023-03-15T08:05:32;3.40;99.90
30234;DHT22;17046;52.074;4.748;2023-03-15T08:07:58;3.50;99.90
30234;DHT22;17046;52.074;4.748;2023-03-15T08:10:24;3.70;99.90
30234;DHT22;17046;52.074;4.748;2023-03-15T08:12:50;3.80;99.90
30234;DHT22;17046;52.074;4.748;2023-03-15T08:15:17;3.80;99.90
30234;DHT22;17046;52.074;4.748;2023-03-15T08:20:10;3.80;99.90
30234;DHT22;17046;52.074;4.748;2023-03-15T08:22:37;4.30;99.90
30234;DHT22;17046;52.074;4.748;2023-03-15T08:25:03;4.40;99.90
30234;DHT22;17046;52.074;4.748;2023-03-15T08:29:55;3.80;99.90
30234;DHT22;17046;52.074;4.748;2023-03-15T08:32:21;4.50;99.90
30234;DHT22;17046;52.074;4.748;2023-03-15T08:34:47;4.70;99.90
30234;DHT22;17046;52.074;4.748;2023-03-15T08:37:13;4.30;99.90
30234;DHT22;17046;52.074;4.748;2023-03-15T08:39:39;5.00;99.90
30234;DHT22;17046;52.074;4.748;2023-03-15T08:42:05;4.90;99.90
30234;DHT22;17046;52.074;4.748;2023-03-15T08:44:31;5.10;99.90
30234;DHT22;17046;52.074;4.748;2023-03-15T08:49:24;5.00;99.90
30234;DHT22;17046;52.074;4.748;2023-03-15T08:51:50;4.90;99.90
30234;DHT22;17046;52.074;4.748;2023-03-15T08:54:16;5.10;99.90
30234;DHT22;17046;52.074;4.748;2023-03-15T08:56:41;4.90;99.90
30234;DHT22;17046;52.074;4.748;2023-03-15T08:59:08;5.00;99.90
30234;DHT22;17046;52.074;4.748;2023-03-15T09:04:00;4.60;99.90
30234;DHT22;17046;52.074;4.748;2023-03-15T09:06:27;5.70;99.90
30234;DHT22;17046;52.074;4.748;2023-03-15T09:08:53;5.30;99.90
30234;DHT22;17046;52.074;4.748;2023-03-15T09:11:19;5.40;99.90
30234;DHT22;17046;52.074;4.748;2023-03-15T09:16:11;5.80;99.90
30234;DHT22;17046;52.074;4.748;2023-03-15T09:18:36;5.30;96.40
30234;DHT22;17046;52.074;4.748;2023-03-15T09:21:04;5.40;99.90
30234;DHT22;17046;52.074;4.748;2023-03-15T09:23:30;5.00;99.90
30234;DHT22;17046;52.074;4.748;2023-03-15T09:25:55;5.70;33.70
30234;DHT22;17046;52.074;4.748;2023-03-15T09:28:21;5.80;59.40
30234;DHT22;17046;52.074;4.748;2023-03-15T09:33:13;5.80;55.60
30234;DHT22;17046;52.074;4.748;2023-03-15T09:35:39;5.80;34.30
30234;DHT22;17046;52.074;4.748;2023-03-15T09:38:06;6.10;1.00
30234;DHT22;17046;52.074;4.748;2023-03-15T09:40:34;6.10;1.00
30234;DHT22;17046;52.074;4.748;2023-03-15T09:45:39;6.20;1.00
30234;DHT22;17046;52.074;4.748;2023-03-15T09:50:57;6.50;1.00
30234;DHT22;17046;52.074;4.748;2023-03-15T09:53:38;6.30;1.00
30234;DHT22;17046;52.074;4.748;2023-03-15T09:58:46;6.50;1.00
30234;DHT22;17046;52.074;4.748;2023-03-15T10:01:13;6.50;1.00
30234;DHT22;17046;52.074;4.748;2023-03-15T10:03:49;6.80;1.00
30234;DHT22;17046;52.074;4.748;2023-03-15T10:06:18;6.60;99.90
30234;DHT22;17046;52.074;4.748;2023-03-15T10:08:45;7.30;99.90
30234;DHT22;17046;52.074;4.748;2023-03-15T10:11:39;6.20;1.00
30234;DHT22;17046;52.074;4.748;2023-03-15T10:16:48;6.70;1.00
30234;DHT22;17046;52.074;4.748;2023-03-15T10:27:36;6.80;99.90
30234;DHT22;17046;52.074;4.748;2023-03-15T10:30:15;6.80;99.90
30234;DHT22;17046;52.074;4.748;2023-03-15T10:32:42;6.90;1.00
30234;DHT22;17046;52.074;4.748;2023-03-15T10:35:14;6.90;99.90
30234;DHT22;17046;52.074;4.748;2023-03-15T10:40:07;7.20;96.90
30234;DHT22;17046;52.074;4.748;2023-03-15T10:42:40;7.20;99.90
30234;DHT22;17046;52.074;4.748;2023-03-15T10:45:24;7.50;90.80
30234;DHT22;17046;52.074;4.748;2023-03-15T10:47:51;6.70;38.30
30234;DHT22;17046;52.074;4.748;2023-03-15T10:52:49;7.20;1.00
30234;DHT22;17046;52.074;4.748;2023-03-15T10:55:27;7.70;1.00
30234;DHT22;17046;52.074;4.748;2023-03-15T10:57:56;7.60;1.00
30234;DHT22;17046;52.074;4.748;2023-03-15T11:00:34;7.40;1.00
30234;DHT22;17046;52.074;4.748;2023-03-15T11:03:18;7.60;1.00
30234;DHT22;17046;52.074;4.748;2023-03-15T11:05:50;8.00;1.00
30234;DHT22;17046;52.074;4.748;2023-03-15T11:08:18;7.60;99.90
30234;DHT22;17046;52.074;4.748;2023-03-15T11:10:45;7.10;99.90
30234;DHT22;17046;52.074;4.748;2023-03-15T11:13:23;7.80;99.90
30234;DHT22;17046;52.074;4.748;2023-03-15T11:18:31;7.60;99.90
30234;DHT22;17046;52.074;4.748;2023-03-15T11:20:58;7.90;99.90
30234;DHT22;17046;52.074;4.748;2023-03-15T11:23:28;7.80;99.90
30234;DHT22;17046;52.074;4.748;2023-03-15T11:25:56;7.80;99.90
30234;DHT22;17046;52.074;4.748;2023-03-15T11:28:26;7.80;99.90
30234;DHT22;17046;52.074;4.748;2023-03-15T11:30:52;7.50;99.90
30234;DHT22;17046;52.074;4.748;2023-03-15T11:33:50;7.80;99.90
30234;DHT22;17046;52.074;4.748;2023-03-15T11:36:22;7.70;99.90
30234;DHT22;17046;52.074;4.748;2023-03-15T11:38:49;7.40;99.90
30234;DHT22;17046;52.074;4.748;2023-03-15T11:44:15;8.00;99.90
30234;DHT22;17046;52.074;4.748;2023-03-15T11:46:48;7.90;99.90
30234;DHT22;17046;52.074;4.748;2023-03-15T11:49:28;7.80;99.90
30234;DHT22;17046;52.074;4.748;2023-03-15T11:51:56;7.60;99.90
30234;DHT22;17046;52.074;4.748;2023-03-15T11:54:23;7.80;99.90
30234;DHT22;17046;52.074;4.748;2023-03-15T11:57:01;8.10;99.90
30234;DHT22;17046;52.074;4.748;2023-03-15T11:59:29;8.00;99.90
30234;DHT22;17046;52.074;4.748;2023-03-15T12:01:59;8.20;99.90
30234;DHT22;17046;52.074;4.748;2023-03-15T12:07:01;8.50;99.90
30234;DHT22;17046;52.074;4.748;2023-03-15T12:17:56;8.60;99.90
30234;DHT22;17046;52.074;4.748;2023-03-15T12:20:39;8.20;99.90
30234;DHT22;17046;52.074;4.748;2023-03-15T12:28:30;8.40;99.90
30234;DHT22;17046;52.074;4.748;2023-03-15T12:31:01;8.70;99.90
30234;DHT22;17046;52.074;4.748;2023-03-15T12:33:29;8.60;99.90
30234;DHT22;17046;52.074;4.748;2023-03-15T12:36:08;8.90;99.90
30234;DHT22;17046;52.074;4.748;2023-03-15T12:38:38;8.30;99.90
30234;DHT22;17046;52.074;4.748;2023-03-15T12:41:09;8.50;99.90
30234;DHT22;17046;52.074;4.748;2023-03-15T12:51:43;9.00;99.90
30234;DHT22;17046;52.074;4.748;2023-03-15T12:54:10;9.20;99.90
30234;DHT22;17046;52.074;4.748;2023-03-15T12:56:43;8.80;99.90
30234;DHT22;17046;52.074;4.748;2023-03-15T12:59:37;8.70;99.90
30234;DHT22;17046;52.074;4.748;2023-03-15T13:16:08;9.20;99.90
30234;DHT22;17046;52.074;4.748;2023-03-15T13:19:02;8.70;99.90
30234;DHT22;17046;52.074;4.748;2023-03-15T13:22:04;8.90;99.90
30234;DHT22;17046;52.074;4.748;2023-03-15T13:24:43;9.80;99.90
30234;DHT22;17046;52.074;4.748;2023-03-15T13:30:23;9.00;99.90
30234;DHT22;17046;52.074;4.748;2023-03-15T13:33:22;9.20;99.90
30234;DHT22;17046;52.074;4.748;2023-03-15T13:36:10;8.90;99.90
30234;DHT22;17046;52.074;4.748;2023-03-15T13:38:50;8.90;99.90
30234;DHT22;17046;52.074;4.748;2023-03-15T13:41:26;9.20;99.90
30234;DHT22;17046;52.074;4.748;2023-03-15T13:43:55;9.30;99.90
30234;DHT22;17046;52.074;4.748;2023-03-15T13:46:24;9.00;99.90
30234;DHT22;17046;52.074;4.748;2023-03-15T13:48:53;8.90;99.90
30234;DHT22;17046;52.074;4.748;2023-03-15T13:51:31;9.30;99.90
30234;DHT22;17046;52.074;4.748;2023-03-15T13:54:45;8.80;99.90
30234;DHT22;17046;52.074;4.748;2023-03-15T13:56:56;9.20;99.90
30234;DHT22;17046;52.074;4.748;2023-03-15T13:59:26;9.10;99.90
30234;DHT22;17046;52.074;4.748;2023-03-15T14:01:57;9.70;99.90
30234;DHT22;17046;52.074;4.748;2023-03-15T14:04:24;9.60;99.90
30234;DHT22;17046;52.074;4.748;2023-03-15T14:06:50;9.10;99.90
30234;DHT22;17046;52.074;4.748;2023-03-15T14:09:28;9.20;99.90
30234;DHT22;17046;52.074;4.748;2023-03-15T14:12:01;9.40;99.90
30234;DHT22;17046;52.074;4.748;2023-03-15T14:14:28;9.70;99.90
30234;DHT22;17046;52.074;4.748;2023-03-15T14:16:56;9.30;99.90
30234;DHT22;17046;52.074;4.748;2023-03-15T14:19:25;9.60;99.90
30234;DHT22;17046;52.074;4.748;2023-03-15T14:24:26;8.90;99.90
30234;DHT22;17046;52.074;4.748;2023-03-15T14:26:59;9.70;99.90
30234;DHT22;17046;52.074;4.748;2023-03-15T14:29:30;9.20;99.90
30234;DHT22;17046;52.074;4.748;2023-03-15T14:32:11;9.80;99.90
30234;DHT22;17046;52.074;4.748;2023-03-15T14:34:46;9.50;99.90
30234;DHT22;17046;52.074;4.748;2023-03-15T14:40:16;9.80;99.90
30234;DHT22;17046;52.074;4.748;2023-03-15T14:42:43;9.60;99.90
30234;DHT22;17046;52.074;4.748;2023-03-15T14:45:09;9.80;99.90
30234;DHT22;17046;52.074;4.748;2023-03-15T14:47:38;9.10;99.90
30234;DHT22;17046;52.074;4.748;2023-03-15T14:50:12;8.90;99.90
30234;DHT22;17046;52.074;4.748;2023-03-15T14:52:39;9.70;99.90
30234;DHT22;17046;52.074;4.748;2023-03-15T14:55:12;9.70;99.90
30234;DHT22;17046;52.074;4.748;2023-03-15T14:57:38;9.70;99.90
30234;DHT22;17046;52.074;4.748;2023-03-15T15:00:04;9.30;99.90
30234;DHT22;17046;52.074;4.748;2023-03-15T15:02:31;9.40;99.90
30234;DHT22;17046;52.074;4.748;2023-03-15T15:05:08;9.80;99.90
30234;DHT22;17046;52.074;4.748;2023-03-15T15:07:40;10.00;99.90
30234;DHT22;17046;52.074;4.748;2023-03-15T15:10:06;9.60;99.90
30234;DHT22;17046;52.074;4.748;2023-03-15T15:12:31;9.80;99.90
30234;DHT22;17046;52.074;4.748;2023-03-15T15:14:57;9.80;99.90
30234;DHT22;17046;52.074;4.748;2023-03-15T15:24:41;9.40;99.90
30234;DHT22;17046;52.074;4.748;2023-03-15T15:27:09;9.30;99.90
30234;DHT22;17046;52.074;4.748;2023-03-15T15:36:53;9.00;99.90
30234;DHT22;17046;52.074;4.748;2023-03-15T15:39:24;9.20;99.90
30234;DHT22;17046;52.074;4.748;2023-03-15T15:44:19;9.10;99.90
30234;DHT22;17046;52.074;4.748;2023-03-15T15:46:45;9.00;99.90
30234;DHT22;17046;52.074;4.748;2023-03-15T15:49:11;8.80;99.90
30234;DHT22;17046;52.074;4.748;2023-03-15T15:54:04;8.80;99.90
30234;DHT22;17046;52.074;4.748;2023-03-15T15:56:36;9.20;99.90
30234;DHT22;17046;52.074;4.748;2023-03-15T15:59:04;9.10;99.90
30234;DHT22;17046;52.074;4.748;2023-03-15T16:04:00;8.80;99.90
30234;DHT22;17046;52.074;4.748;2023-03-15T16:06:26;8.80;99.90
30234;DHT22;17046;52.074;4.748;2023-03-15T16:08:53;8.60;99.90
30234;DHT22;17046;52.074;4.748;2023-03-15T16:11:20;7.80;99.90
30234;DHT22;17046;52.074;4.748;2023-03-15T16:13:47;8.90;99.90
30234;DHT22;17046;52.074;4.748;2023-03-15T16:16:15;8.60;99.90
30234;DHT22;17046;52.074;4.748;2023-03-15T16:18:42;8.60;99.90
30234;DHT22;17046;52.074;4.748;2023-03-15T16:21:37;8.70;99.90
30234;DHT22;17046;52.074;4.748;2023-03-15T16:24:17;8.70;99.90
30234;DHT22;17046;52.074;4.748;2023-03-15T16:26:44;8.60;99.90
30234;DHT22;17046;52.074;4.748;2023-03-15T16:29:22;8.50;99.90
30234;DHT22;17046;52.074;4.748;2023-03-15T16:31:48;8.00;99.90
30234;DHT22;17046;52.074;4.748;2023-03-15T16:34:17;8.20;99.90
30234;DHT22;17046;52.074;4.748;2023-03-15T16:36:44;8.40;99.90
30234;DHT22;17046;52.074;4.748;2023-03-15T16:39:14;8.20;99.90
30234;DHT22;17046;52.074;4.748;2023-03-15T16:41:41;8.40;99.90
30234;DHT22;17046;52.074;4.748;2023-03-15T16:44:15;8.10;99.90
30234;DHT22;17046;52.074;4.748;2023-03-15T16:46:41;7.50;99.90
30234;DHT22;17046;52.074;4.748;2023-03-15T16:49:07;8.20;99.90
30234;DHT22;17046;52.074;4.748;2023-03-15T16:51:33;8.40;99.90
30234;DHT22;17046;52.074;4.748;2023-03-15T16:53:59;7.90;99.90
30234;DHT22;17046;52.074;4.748;2023-03-15T16:56:26;7.90;99.90
30234;DHT22;17046;52.074;4.748;2023-03-15T16:58:54;8.00;1.00
30234;DHT22;17046;52.074;4.748;2023-03-15T17:01:20;7.90;99.90
30234;DHT22;17046;52.074;4.748;2023-03-15T17:03:45;7.60;99.90
30234;DHT22;17046;52.074;4.748;2023-03-15T17:06:21;8.20;99.90
30234;DHT22;17046;52.074;4.748;2023-03-15T17:09:06;7.50;1.00
30234;DHT22;17046;52.074;4.748;2023-03-15T17:11:37;7.80;1.00
30234;DHT22;17046;52.074;4.748;2023-03-15T17:14:04;7.90;1.00
30234;DHT22;17046;52.074;4.748;2023-03-15T17:18:56;7.70;1.00
30234;DHT22;17046;52.074;4.748;2023-03-15T17:21:24;7.30;1.00
30234;DHT22;17046;52.074;4.748;2023-03-15T17:23:50;7.70;1.00
30234;DHT22;17046;52.074;4.748;2023-03-15T17:26:19;7.50;1.00
30234;DHT22;17046;52.074;4.748;2023-03-15T17:28:45;6.60;1.00
30234;DHT22;17046;52.074;4.748;2023-03-15T17:31:17;7.70;1.00
30234;DHT22;17046;52.074;4.748;2023-03-15T17:33:43;6.70;1.00
30234;DHT22;17046;52.074;4.748;2023-03-15T17:36:13;7.30;1.00
30234;DHT22;17046;52.074;4.748;2023-03-15T17:43:48;7.20;71.90
30234;DHT22;17046;52.074;4.748;2023-03-15T17:46:18;7.60;99.90
30234;DHT22;17046;52.074;4.748;2023-03-15T17:51:18;6.80;99.90
30234;DHT22;17046;52.074;4.748;2023-03-15T17:53:45;6.90;99.90
30234;DHT22;17046;52.074;4.748;2023-03-15T17:56:11;6.70;99.90
30234;DHT22;17046;52.074;4.748;2023-03-15T17:58:37;7.00;99.90
30234;DHT22;17046;52.074;4.748;2023-03-15T18:01:08;6.60;99.90
30234;DHT22;17046;52.074;4.748;2023-03-15T18:06:04;6.50;99.90
30234;DHT22;17046;52.074;4.748;2023-03-15T18:08:30;6.90;99.90
30234;DHT22;17046;52.074;4.748;2023-03-15T18:10:56;6.50;99.90
30234;DHT22;17046;52.074;4.748;2023-03-15T18:13:23;5.90;1.00
30234;DHT22;17046;52.074;4.748;2023-03-15T18:15:50;6.50;1.00
30234;DHT22;17046;52.074;4.748;2023-03-15T18:18:17;6.50;1.00
30234;DHT22;17046;52.074;4.748;2023-03-15T18:20:44;5.60;1.00
30234;DHT22;17046;52.074;4.748;2023-03-15T18:23:14;6.40;1.00
30234;DHT22;17046;52.074;4.748;2023-03-15T18:25:40;6.40;1.00
30234;DHT22;17046;52.074;4.748;2023-03-15T18:28:06;6.90;1.00
30234;DHT22;17046;52.074;4.748;2023-03-15T18:30:32;6.40;1.00
30234;DHT22;17046;52.074;4.748;2023-03-15T18:32:58;6.40;1.00
30234;DHT22;17046;52.074;4.748;2023-03-15T18:35:31;6.00;1.00
30234;DHT22;17046;52.074;4.748;2023-03-15T18:37:57;6.00;1.00
30234;DHT22;17046;52.074;4.748;2023-03-15T18:40:26;6.30;1.00
30234;DHT22;17046;52.074;4.748;2023-03-15T18:42:52;6.30;1.00
30234;DHT22;17046;52.074;4.748;2023-03-15T18:45:22;6.30;1.00
30234;DHT22;17046;52.074;4.748;2023-03-15T18:47:48;6.30;1.00
30234;DHT22;17046;52.074;4.748;2023-03-15T18:50:15;5.30;1.00
30234;DHT22;17046;52.074;4.748;2023-03-15T18:55:08;5.90;1.00
30234;DHT22;17046;52.074;4.748;2023-03-15T19:00:03;6.30;1.00
30234;DHT22;17046;52.074;4.748;2023-03-15T19:02:54;5.70;1.00
30234;DHT22;17046;52.074;4.748;2023-03-15T19:05:20;5.90;1.00
30234;DHT22;17046;52.074;4.748;2023-03-15T19:07:46;6.00;1.00
30234;DHT22;17046;52.074;4.748;2023-03-15T19:10:14;6.00;1.00
30234;DHT22;17046;52.074;4.748;2023-03-15T19:12:41;6.00;1.00
30234;DHT22;17046;52.074;4.748;2023-03-15T19:15:09;5.70;1.00
30234;DHT22;17046;52.074;4.748;2023-03-15T19:17:36;5.80;1.00
30234;DHT22;17046;52.074;4.748;2023-03-15T19:22:29;5.90;1.00
30234;DHT22;17046;52.074;4.748;2023-03-15T19:24:56;5.80;1.00
30234;DHT22;17046;52.074;4.748;2023-03-15T19:29:47;5.50;1.00
30234;DHT22;17046;52.074;4.748;2023-03-15T19:34:39;5.90;1.00
30234;DHT22;17046;52.074;4.748;2023-03-15T19:37:05;5.30;1.00
30234;DHT22;17046;52.074;4.748;2023-03-15T19:39:31;5.70;1.00
30234;DHT22;17046;52.074;4.748;2023-03-15T19:44:22;5.70;1.00
30234;DHT22;17046;52.074;4.748;2023-03-15T19:46:48;5.60;1.00
30234;DHT22;17046;52.074;4.748;2023-03-15T19:49:14;5.80;1.00
30234;DHT22;17046;52.074;4.748;2023-03-15T19:51:40;5.90;1.00
30234;DHT22;17046;52.074;4.748;2023-03-15T19:56:31;5.50;1.00
30234;DHT22;17046;52.074;4.748;2023-03-15T19:58:57;5.70;1.00
30234;DHT22;17046;52.074;4.748;2023-03-15T20:01:22;5.20;1.00
30234;DHT22;17046;52.074;4.748;2023-03-15T20:03:48;5.40;1.00
30234;DHT22;17046;52.074;4.748;2023-03-15T20:08:41;6.40;1.00
30234;DHT22;17046;52.074;4.748;2023-03-15T20:11:07;5.80;1.00
30234;DHT22;17046;52.074;4.748;2023-03-15T20:13:35;5.70;1.00
30234;DHT22;17046;52.074;4.748;2023-03-15T20:16:02;5.10;1.00
30234;DHT22;17046;52.074;4.748;2023-03-15T20:18:28;5.70;1.00
30234;DHT22;17046;52.074;4.748;2023-03-15T20:20:53;5.90;1.00
30234;DHT22;17046;52.074;4.748;2023-03-15T20:25:45;5.80;1.00
30234;DHT22;17046;52.074;4.748;2023-03-15T20:28:11;6.10;1.00
30234;DHT22;17046;52.074;4.748;2023-03-15T20:30:38;5.80;1.00
30234;DHT22;17046;52.074;4.748;2023-03-15T20:35:30;6.00;1.00
30234;DHT22;17046;52.074;4.748;2023-03-15T20:37:56;5.50;1.00
30234;DHT22;17046;52.074;4.748;2023-03-15T20:40:22;6.00;1.00
30234;DHT22;17046;52.074;4.748;2023-03-15T20:42:48;4.90;1.00
30234;DHT22;17046;52.074;4.748;2023-03-15T20:47:40;5.70;1.00
30234;DHT22;17046;52.074;4.748;2023-03-15T20:50:07;6.00;1.00
30234;DHT22;17046;52.074;4.748;2023-03-15T20:52:34;5.80;1.00
30234;DHT22;17046;52.074;4.748;2023-03-15T20:54:59;5.70;1.00
30234;DHT22;17046;52.074;4.748;2023-03-15T20:57:25;5.60;1.00
30234;DHT22;17046;52.074;4.748;2023-03-15T20:59:51;6.20;1.00
30234;DHT22;17046;52.074;4.748;2023-03-15T21:02:17;5.70;1.00
30234;DHT22;17046;52.074;4.748;2023-03-15T21:04:43;5.80;1.00
30234;DHT22;17046;52.074;4.748;2023-03-15T21:12:01;5.60;1.00
30234;DHT22;17046;52.074;4.748;2023-03-15T21:14:27;5.50;1.00
30234;DHT22;17046;52.074;4.748;2023-03-15T21:16:53;5.60;1.00
30234;DHT22;17046;52.074;4.748;2023-03-15T21:19:19;5.50;1.00
30234;DHT22;17046;52.074;4.748;2023-03-15T21:21:47;5.50;1.00